sensor_id;sensor_type;location;lat;lon;timestamp;P1;durP1;ratioP1;P2;durP2;ratioP2
24335;SDS011;75016;52.400;16.880;2024-03-08T00:01:15;46.90;;;26.50;;
24335;SDS011;75016;52.400;16.880;2024-03-08T00:03:45;48.50;;;26.40;;
24335;SDS011;75016;52.400;16.880;2024-03-08T00:06:11;50.50;;;26.40;;
24335;SDS011;75016;52.400;16.880;2024-03-08T00:08:38;45.30;;;25.40;;
24335;SDS011;75016;52.400;16.880;2024-03-08T00:11:04;47.90;;;24.70;;
24335;SDS011;75016;52.400;16.880;2024-03-08T00:13:31;46.00;;;25.10;;
24335;SDS011;75016;52.400;16.880;2024-03-08T00:15:57;45.50;;;24.30;;
24335;SDS011;75016;52.400;16.880;2024-03-08T00:18:24;44.40;;;24.10;;
24335;SDS011;75016;52.400;16.880;2024-03-08T00:20:50;48.00;;;25.00;;
24335;SDS011;75016;52.400;16.880;2024-03-08T00:23:17;46.10;;;25.10;;
24335;SDS011;75016;52.400;16.880;2024-03-08T00:25:43;52.80;;;26.10;;
24335;SDS011;75016;52.400;16.880;2024-03-08T00:28:10;44.70;;;24.70;;
24335;SDS011;75016;52.400;16.880;2024-03-08T00:30:39;40.40;;;23.80;;
24335;SDS011;75016;52.400;16.880;2024-03-08T00:33:06;45.40;;;24.30;;
24335;SDS011;75016;52.400;16.880;2024-03-08T00:35:32;46.80;;;24.50;;
24335;SDS011;75016;52.400;16.880;2024-03-08T00:37:59;43.70;;;24.20;;
24335;SDS011;75016;52.400;16.880;2024-03-08T00:40:25;43.90;;;23.70;;
24335;SDS011;75016;52.400;16.880;2024-03-08T00:42:52;44.50;;;24.10;;
24335;SDS011;75016;52.400;16.880;2024-03-08T00:45:19;45.30;;;23.90;;
24335;SDS011;75016;52.400;16.880;2024-03-08T00:47:46;42.30;;;23.10;;
24335;SDS011;75016;52.400;16.880;2024-03-08T00:50:12;45.90;;;25.10;;
24335;SDS011;75016;52.400;16.880;2024-03-08T00:52:39;43.10;;;24.30;;
24335;SDS011;75016;52.400;16.880;2024-03-08T00:55:06;41.40;;;22.70;;
24335;SDS011;75016;52.400;16.880;2024-03-08T00:57:34;46.30;;;23.90;;
24335;SDS011;75016;52.400;16.880;2024-03-08T01:00:02;43.70;;;24.30;;
24335;SDS011;75016;52.400;16.880;2024-03-08T01:02:30;45.50;;;22.90;;
24335;SDS011;75016;52.400;16.880;2024-03-08T01:04:56;42.60;;;23.20;;
24335;SDS011;75016;52.400;16.880;2024-03-08T01:07:23;46.40;;;23.40;;
24335;SDS011;75016;52.400;16.880;2024-03-08T01:09:49;50.20;;;24.80;;
24335;SDS011;75016;52.400;16.880;2024-03-08T01:12:16;42.60;;;24.10;;
24335;SDS011;75016;52.400;16.880;2024-03-08T01:14:42;46.00;;;23.50;;
24335;SDS011;75016;52.400;16.880;2024-03-08T01:17:09;41.80;;;23.60;;
24335;SDS011;75016;52.400;16.880;2024-03-08T01:19:36;42.10;;;23.50;;
24335;SDS011;75016;52.400;16.880;2024-03-08T01:22:02;48.80;;;25.50;;
24335;SDS011;75016;52.400;16.880;2024-03-08T01:24:29;42.90;;;24.30;;
24335;SDS011;75016;52.400;16.880;2024-03-08T01:26:56;41.70;;;23.40;;
24335;SDS011;75016;52.400;16.880;2024-03-08T01:29:22;41.20;;;22.60;;
24335;SDS011;75016;52.400;16.880;2024-03-08T01:31:49;39.50;;;23.00;;
24335;SDS011;75016;52.400;16.880;2024-03-08T01:34:15;39.00;;;23.30;;
24335;SDS011;75016;52.400;16.880;2024-03-08T01:36:42;46.30;;;22.80;;
24335;SDS011;75016;52.400;16.880;2024-03-08T01:39:08;38.90;;;22.50;;
24335;SDS011;75016;52.400;16.880;2024-03-08T01:41:35;41.50;;;23.70;;
24335;SDS011;75016;52.400;16.880;2024-03-08T01:44:02;41.20;;;22.80;;
24335;SDS011;75016;52.400;16.880;2024-03-08T01:46:29;45.40;;;22.70;;
24335;SDS011;75016;52.400;16.880;2024-03-08T01:48:57;41.10;;;23.80;;
24335;SDS011;75016;52.400;16.880;2024-03-08T01:51:23;42.50;;;22.70;;
24335;SDS011;75016;52.400;16.880;2024-03-08T01:53:50;39.60;;;23.60;;
24335;SDS011;75016;52.400;16.880;2024-03-08T01:56:16;38.00;;;21.90;;
24335;SDS011;75016;52.400;16.880;2024-03-08T01:58:44;40.60;;;22.40;;
24335;SDS011;75016;52.400;16.880;2024-03-08T02:01:11;36.90;;;22.10;;
24335;SDS011;75016;52.400;16.880;2024-03-08T02:03:39;36.10;;;21.90;;
24335;SDS011;75016;52.400;16.880;2024-03-08T02:06:05;38.80;;;22.20;;
24335;SDS011;75016;52.400;16.880;2024-03-08T02:11:03;39.50;;;22.00;;
24335;SDS011;75016;52.400;16.880;2024-03-08T02:13:30;42.80;;;22.60;;
24335;SDS011;75016;52.400;16.880;2024-03-08T02:15:58;40.10;;;22.90;;
24335;SDS011;75016;52.400;16.880;2024-03-08T02:18:26;39.80;;;22.40;;
24335;SDS011;75016;52.400;16.880;2024-03-08T02:23:24;41.60;;;22.60;;
24335;SDS011;75016;52.400;16.880;2024-03-08T02:25:52;39.50;;;22.80;;
24335;SDS011;75016;52.400;16.880;2024-03-08T02:28:20;38.90;;;21.70;;
24335;SDS011;75016;52.400;16.880;2024-03-08T02:30:47;37.30;;;21.70;;
24335;SDS011;75016;52.400;16.880;2024-03-08T02:33:14;41.40;;;22.00;;
24335;SDS011;75016;52.400;16.880;2024-03-08T02:38:13;40.40;;;22.80;;
24335;SDS011;75016;52.400;16.880;2024-03-08T02:40:45;41.80;;;23.00;;
24335;SDS011;75016;52.400;16.880;2024-03-08T02:43:13;43.50;;;23.40;;
24335;SDS011;75016;52.400;16.880;2024-03-08T02:45:43;40.80;;;22.10;;
24335;SDS011;75016;52.400;16.880;2024-03-08T02:48:12;41.80;;;23.40;;
24335;SDS011;75016;52.400;16.880;2024-03-08T02:50:39;38.20;;;23.20;;
24335;SDS011;75016;52.400;16.880;2024-03-08T02:53:06;43.00;;;22.60;;
24335;SDS011;75016;52.400;16.880;2024-03-08T02:55:33;38.60;;;22.40;;
24335;SDS011;75016;52.400;16.880;2024-03-08T02:58:02;40.20;;;22.70;;
24335;SDS011;75016;52.400;16.880;2024-03-08T03:00:30;39.50;;;21.70;;
24335;SDS011;75016;52.400;16.880;2024-03-08T03:02:57;42.50;;;23.60;;
24335;SDS011;75016;52.400;16.880;2024-03-08T03:05:24;37.40;;;22.20;;
24335;SDS011;75016;52.400;16.880;2024-03-08T03:07:50;39.50;;;21.40;;
24335;SDS011;75016;52.400;16.880;2024-03-08T03:10:17;37.90;;;22.20;;
24335;SDS011;75016;52.400;16.880;2024-03-08T03:12:46;40.50;;;22.30;;
24335;SDS011;75016;52.400;16.880;2024-03-08T03:17:46;39.40;;;22.10;;
24335;SDS011;75016;52.400;16.880;2024-03-08T03:20:14;38.30;;;21.20;;
24335;SDS011;75016;52.400;16.880;2024-03-08T03:22:41;35.30;;;21.70;;
24335;SDS011;75016;52.400;16.880;2024-03-08T03:25:07;38.90;;;21.60;;
24335;SDS011;75016;52.400;16.880;2024-03-08T03:27:35;41.40;;;21.90;;
24335;SDS011;75016;52.400;16.880;2024-03-08T03:30:03;43.10;;;22.80;;
24335;SDS011;75016;52.400;16.880;2024-03-08T03:32:50;38.90;;;21.70;;
24335;SDS011;75016;52.400;16.880;2024-03-08T03:35:20;40.50;;;21.80;;
24335;SDS011;75016;52.400;16.880;2024-03-08T03:37:47;37.70;;;21.90;;
24335;SDS011;75016;52.400;16.880;2024-03-08T03:40:33;40.90;;;22.30;;
24335;SDS011;75016;52.400;16.880;2024-03-08T03:43:00;39.40;;;22.40;;
24335;SDS011;75016;52.400;16.880;2024-03-08T03:45:29;39.50;;;23.20;;
24335;SDS011;75016;52.400;16.880;2024-03-08T03:47:55;36.50;;;22.50;;
24335;SDS011;75016;52.400;16.880;2024-03-08T03:50:22;36.90;;;21.90;;
24335;SDS011;75016;52.400;16.880;2024-03-08T03:52:49;42.90;;;21.50;;
24335;SDS011;75016;52.400;16.880;2024-03-08T03:55:16;36.60;;;21.20;;
24335;SDS011;75016;52.400;16.880;2024-03-08T03:57:42;40.00;;;22.00;;
24335;SDS011;75016;52.400;16.880;2024-03-08T04:00:12;40.00;;;21.70;;
24335;SDS011;75016;52.400;16.880;2024-03-08T04:02:41;36.80;;;21.20;;
24335;SDS011;75016;52.400;16.880;2024-03-08T04:05:08;38.20;;;21.60;;
24335;SDS011;75016;52.400;16.880;2024-03-08T04:07:37;38.80;;;21.40;;
24335;SDS011;75016;52.400;16.880;2024-03-08T04:10:04;40.30;;;22.20;;
24335;SDS011;75016;52.400;16.880;2024-03-08T04:12:33;40.00;;;21.50;;
24335;SDS011;75016;52.400;16.880;2024-03-08T04:15:00;39.50;;;22.20;;
24335;SDS011;75016;52.400;16.880;2024-03-08T04:17:27;39.00;;;21.20;;
24335;SDS011;75016;52.400;16.880;2024-03-08T04:19:53;37.10;;;21.10;;
24335;SDS011;75016;52.400;16.880;2024-03-08T04:22:20;41.10;;;22.50;;
24335;SDS011;75016;52.400;16.880;2024-03-08T04:24:46;39.20;;;21.60;;
24335;SDS011;75016;52.400;16.880;2024-03-08T04:27:13;40.30;;;21.80;;
24335;SDS011;75016;52.400;16.880;2024-03-08T04:29:40;42.30;;;22.20;;
24335;SDS011;75016;52.400;16.880;2024-03-08T04:32:08;40.30;;;22.30;;
24335;SDS011;75016;52.400;16.880;2024-03-08T04:34:37;44.20;;;24.00;;
24335;SDS011;75016;52.400;16.880;2024-03-08T04:37:03;40.40;;;21.80;;
24335;SDS011;75016;52.400;16.880;2024-03-08T04:39:33;41.60;;;22.10;;
24335;SDS011;75016;52.400;16.880;2024-03-08T04:42:00;43.50;;;22.50;;
24335;SDS011;75016;52.400;16.880;2024-03-08T04:44:30;42.00;;;22.80;;
24335;SDS011;75016;52.400;16.880;2024-03-08T04:46:57;39.40;;;22.40;;
24335;SDS011;75016;52.400;16.880;2024-03-08T04:49:24;37.30;;;21.80;;
24335;SDS011;75016;52.400;16.880;2024-03-08T04:51:51;42.00;;;23.00;;
24335;SDS011;75016;52.400;16.880;2024-03-08T04:54:17;42.50;;;22.60;;
24335;SDS011;75016;52.400;16.880;2024-03-08T04:56:44;41.80;;;22.60;;
24335;SDS011;75016;52.400;16.880;2024-03-08T04:59:10;40.50;;;22.80;;
24335;SDS011;75016;52.400;16.880;2024-03-08T05:01:37;42.20;;;22.70;;
24335;SDS011;75016;52.400;16.880;2024-03-08T05:04:04;40.00;;;22.40;;
24335;SDS011;75016;52.400;16.880;2024-03-08T05:06:31;44.10;;;22.70;;
24335;SDS011;75016;52.400;16.880;2024-03-08T05:08:58;43.70;;;23.30;;
24335;SDS011;75016;52.400;16.880;2024-03-08T05:11:24;44.80;;;22.90;;
24335;SDS011;75016;52.400;16.880;2024-03-08T05:13:51;42.40;;;22.70;;
24335;SDS011;75016;52.400;16.880;2024-03-08T05:16:17;44.50;;;24.00;;
24335;SDS011;75016;52.400;16.880;2024-03-08T05:18:44;40.20;;;22.30;;
24335;SDS011;75016;52.400;16.880;2024-03-08T05:21:13;46.40;;;24.00;;
24335;SDS011;75016;52.400;16.880;2024-03-08T05:23:39;40.80;;;23.20;;
24335;SDS011;75016;52.400;16.880;2024-03-08T05:26:06;42.20;;;24.40;;
24335;SDS011;75016;52.400;16.880;2024-03-08T05:28:32;42.40;;;22.70;;
24335;SDS011;75016;52.400;16.880;2024-03-08T05:30:59;42.00;;;23.50;;
24335;SDS011;75016;52.400;16.880;2024-03-08T05:33:26;41.70;;;23.70;;
24335;SDS011;75016;52.400;16.880;2024-03-08T05:35:52;43.50;;;24.00;;
24335;SDS011;75016;52.400;16.880;2024-03-08T05:38:20;42.10;;;23.60;;
24335;SDS011;75016;52.400;16.880;2024-03-08T05:40:47;43.60;;;24.70;;
24335;SDS011;75016;52.400;16.880;2024-03-08T05:43:14;43.80;;;24.20;;
24335;SDS011;75016;52.400;16.880;2024-03-08T05:45:43;42.80;;;23.40;;
24335;SDS011;75016;52.400;16.880;2024-03-08T05:48:10;41.00;;;23.80;;
24335;SDS011;75016;52.400;16.880;2024-03-08T05:50:38;44.90;;;25.00;;
24335;SDS011;75016;52.400;16.880;2024-03-08T05:53:05;44.50;;;25.10;;
24335;SDS011;75016;52.400;16.880;2024-03-08T05:55:33;45.90;;;24.30;;
24335;SDS011;75016;52.400;16.880;2024-03-08T05:58:02;46.90;;;25.30;;
24335;SDS011;75016;52.400;16.880;2024-03-08T06:00:28;47.40;;;25.40;;
24335;SDS011;75016;52.400;16.880;2024-03-08T06:02:57;42.40;;;24.50;;
24335;SDS011;75016;52.400;16.880;2024-03-08T06:05:25;49.20;;;25.90;;
24335;SDS011;75016;52.400;16.880;2024-03-08T06:07:51;52.00;;;26.10;;
24335;SDS011;75016;52.400;16.880;2024-03-08T06:10:19;47.20;;;25.90;;
24335;SDS011;75016;52.400;16.880;2024-03-08T06:12:46;47.40;;;26.00;;
24335;SDS011;75016;52.400;16.880;2024-03-08T06:15:12;50.90;;;26.50;;
24335;SDS011;75016;52.400;16.880;2024-03-08T06:17:41;50.10;;;26.50;;
24335;SDS011;75016;52.400;16.880;2024-03-08T06:20:08;48.70;;;27.20;;
24335;SDS011;75016;52.400;16.880;2024-03-08T06:22:39;50.80;;;26.20;;
24335;SDS011;75016;52.400;16.880;2024-03-08T06:25:09;50.70;;;27.70;;
24335;SDS011;75016;52.400;16.880;2024-03-08T06:27:37;47.80;;;25.90;;
24335;SDS011;75016;52.400;16.880;2024-03-08T06:30:03;55.50;;;27.90;;
24335;SDS011;75016;52.400;16.880;2024-03-08T06:32:31;48.10;;;27.00;;
24335;SDS011;75016;52.400;16.880;2024-03-08T06:35:02;49.10;;;26.80;;
24335;SDS011;75016;52.400;16.880;2024-03-08T06:37:32;50.70;;;28.40;;
24335;SDS011;75016;52.400;16.880;2024-03-08T06:39:59;51.90;;;27.40;;
24335;SDS011;75016;52.400;16.880;2024-03-08T06:42:28;52.50;;;27.50;;
24335;SDS011;75016;52.400;16.880;2024-03-08T06:44:54;53.20;;;27.20;;
24335;SDS011;75016;52.400;16.880;2024-03-08T06:47:26;52.90;;;27.60;;
24335;SDS011;75016;52.400;16.880;2024-03-08T06:49:52;53.00;;;28.70;;
24335;SDS011;75016;52.400;16.880;2024-03-08T06:52:19;50.30;;;28.30;;
24335;SDS011;75016;52.400;16.880;2024-03-08T06:54:45;55.40;;;28.50;;
24335;SDS011;75016;52.400;16.880;2024-03-08T06:57:12;50.30;;;28.60;;
24335;SDS011;75016;52.400;16.880;2024-03-08T06:59:40;51.10;;;28.80;;
24335;SDS011;75016;52.400;16.880;2024-03-08T07:02:06;51.20;;;28.90;;
24335;SDS011;75016;52.400;16.880;2024-03-08T07:04:35;54.50;;;29.80;;
24335;SDS011;75016;52.400;16.880;2024-03-08T07:07:04;51.70;;;29.50;;
24335;SDS011;75016;52.400;16.880;2024-03-08T07:09:31;54.70;;;29.50;;
24335;SDS011;75016;52.400;16.880;2024-03-08T07:11:58;53.30;;;28.60;;
24335;SDS011;75016;52.400;16.880;2024-03-08T07:14:25;57.90;;;28.50;;
24335;SDS011;75016;52.400;16.880;2024-03-08T07:16:51;50.80;;;29.80;;
24335;SDS011;75016;52.400;16.880;2024-03-08T07:19:19;57.10;;;30.50;;
24335;SDS011;75016;52.400;16.880;2024-03-08T07:21:45;57.70;;;30.20;;
24335;SDS011;75016;52.400;16.880;2024-03-08T07:24:13;60.60;;;31.00;;
24335;SDS011;75016;52.400;16.880;2024-03-08T07:26:43;50.40;;;28.60;;
24335;SDS011;75016;52.400;16.880;2024-03-08T07:29:10;55.30;;;29.60;;
24335;SDS011;75016;52.400;16.880;2024-03-08T07:31:36;53.60;;;29.30;;
24335;SDS011;75016;52.400;16.880;2024-03-08T07:34:22;53.80;;;28.10;;
24335;SDS011;75016;52.400;16.880;2024-03-08T07:36:48;53.70;;;29.60;;
24335;SDS011;75016;52.400;16.880;2024-03-08T07:39:17;54.80;;;30.20;;
24335;SDS011;75016;52.400;16.880;2024-03-08T07:41:43;55.20;;;29.70;;
24335;SDS011;75016;52.400;16.880;2024-03-08T07:44:10;54.20;;;29.80;;
24335;SDS011;75016;52.400;16.880;2024-03-08T07:46:36;57.50;;;29.10;;
24335;SDS011;75016;52.400;16.880;2024-03-08T07:49:03;47.60;;;27.10;;
24335;SDS011;75016;52.400;16.880;2024-03-08T07:51:29;46.10;;;26.50;;
24335;SDS011;75016;52.400;16.880;2024-03-08T07:53:56;48.40;;;27.00;;
24335;SDS011;75016;52.400;16.880;2024-03-08T07:56:23;53.90;;;26.70;;
24335;SDS011;75016;52.400;16.880;2024-03-08T07:58:51;55.40;;;27.90;;
24335;SDS011;75016;52.400;16.880;2024-03-08T08:01:19;49.50;;;26.80;;
24335;SDS011;75016;52.400;16.880;2024-03-08T08:03:46;45.60;;;27.10;;
24335;SDS011;75016;52.400;16.880;2024-03-08T08:06:15;48.80;;;25.80;;
24335;SDS011;75016;52.400;16.880;2024-03-08T08:08:42;47.50;;;25.50;;
24335;SDS011;75016;52.400;16.880;2024-03-08T08:11:09;47.50;;;26.50;;
24335;SDS011;75016;52.400;16.880;2024-03-08T08:13:35;49.40;;;25.30;;
24335;SDS011;75016;52.400;16.880;2024-03-08T08:16:03;45.90;;;26.10;;
24335;SDS011;75016;52.400;16.880;2024-03-08T08:18:30;45.30;;;26.90;;
24335;SDS011;75016;52.400;16.880;2024-03-08T08:20:56;43.60;;;25.00;;
24335;SDS011;75016;52.400;16.880;2024-03-08T08:23:23;39.00;;;22.70;;
24335;SDS011;75016;52.400;16.880;2024-03-08T08:25:49;38.80;;;23.80;;
24335;SDS011;75016;52.400;16.880;2024-03-08T08:28:16;41.60;;;23.30;;
24335;SDS011;75016;52.400;16.880;2024-03-08T08:30:46;40.70;;;23.00;;
24335;SDS011;75016;52.400;16.880;2024-03-08T08:33:15;47.30;;;23.80;;
24335;SDS011;75016;52.400;16.880;2024-03-08T08:35:41;38.00;;;22.00;;
24335;SDS011;75016;52.400;16.880;2024-03-08T08:38:08;46.70;;;23.30;;
24335;SDS011;75016;52.400;16.880;2024-03-08T08:40:35;33.20;;;20.00;;
24335;SDS011;75016;52.400;16.880;2024-03-08T08:43:02;34.20;;;20.40;;
24335;SDS011;75016;52.400;16.880;2024-03-08T08:45:30;36.70;;;20.20;;
24335;SDS011;75016;52.400;16.880;2024-03-08T08:47:57;33.80;;;20.20;;
24335;SDS011;75016;52.400;16.880;2024-03-08T08:50:26;30.70;;;18.50;;
24335;SDS011;75016;52.400;16.880;2024-03-08T08:52:54;30.30;;;16.80;;
24335;SDS011;75016;52.400;16.880;2024-03-08T08:55:21;29.70;;;17.80;;
24335;SDS011;75016;52.400;16.880;2024-03-08T08:57:52;33.50;;;18.10;;
24335;SDS011;75016;52.400;16.880;2024-03-08T09:00:19;29.30;;;16.90;;
24335;SDS011;75016;52.400;16.880;2024-03-08T09:02:46;32.10;;;17.90;;
24335;SDS011;75016;52.400;16.880;2024-03-08T09:05:14;27.40;;;17.10;;
24335;SDS011;75016;52.400;16.880;2024-03-08T09:07:43;31.20;;;17.70;;
24335;SDS011;75016;52.400;16.880;2024-03-08T09:12:40;24.20;;;15.80;;
24335;SDS011;75016;52.400;16.880;2024-03-08T09:15:07;29.90;;;16.80;;
24335;SDS011;75016;52.400;16.880;2024-03-08T09:17:40;25.70;;;15.80;;
24335;SDS011;75016;52.400;16.880;2024-03-08T09:20:07;26.10;;;15.60;;
24335;SDS011;75016;52.400;16.880;2024-03-08T09:22:34;25.00;;;14.60;;
24335;SDS011;75016;52.400;16.880;2024-03-08T09:25:01;26.10;;;13.70;;
24335;SDS011;75016;52.400;16.880;2024-03-08T09:27:28;22.10;;;13.70;;
24335;SDS011;75016;52.400;16.880;2024-03-08T09:29:54;26.50;;;14.40;;
24335;SDS011;75016;52.400;16.880;2024-03-08T09:32:22;22.30;;;13.70;;
24335;SDS011;75016;52.400;16.880;2024-03-08T09:34:49;22.10;;;13.60;;
24335;SDS011;75016;52.400;16.880;2024-03-08T09:37:16;21.50;;;12.40;;
24335;SDS011;75016;52.400;16.880;2024-03-08T09:39:43;22.80;;;14.10;;
24335;SDS011;75016;52.400;16.880;2024-03-08T09:42:11;24.70;;;13.50;;
24335;SDS011;75016;52.400;16.880;2024-03-08T09:44:44;19.90;;;12.90;;
24335;SDS011;75016;52.400;16.880;2024-03-08T09:47:14;20.50;;;11.90;;
24335;SDS011;75016;52.400;16.880;2024-03-08T09:49:41;20.90;;;11.50;;
24335;SDS011;75016;52.400;16.880;2024-03-08T09:52:09;17.60;;;11.50;;
24335;SDS011;75016;52.400;16.880;2024-03-08T09:54:36;23.00;;;12.50;;
24335;SDS011;75016;52.400;16.880;2024-03-08T09:57:03;19.90;;;12.30;;
24335;SDS011;75016;52.400;16.880;2024-03-08T09:59:30;15.70;;;10.60;;
24335;SDS011;75016;52.400;16.880;2024-03-08T10:02:03;18.40;;;10.90;;
24335;SDS011;75016;52.400;16.880;2024-03-08T10:04:30;15.40;;;10.30;;
24335;SDS011;75016;52.400;16.880;2024-03-08T10:06:58;16.70;;;10.20;;
24335;SDS011;75016;52.400;16.880;2024-03-08T10:09:27;16.70;;;10.40;;
24335;SDS011;75016;52.400;16.880;2024-03-08T10:11:57;18.40;;;11.00;;
24335;SDS011;75016;52.400;16.880;2024-03-08T10:14:26;19.50;;;11.60;;
24335;SDS011;75016;52.400;16.880;2024-03-08T10:16:53;18.50;;;11.60;;
24335;SDS011;75016;52.400;16.880;2024-03-08T10:19:20;22.90;;;11.90;;
24335;SDS011;75016;52.400;16.880;2024-03-08T10:21:47;17.70;;;11.80;;
24335;SDS011;75016;52.400;16.880;2024-03-08T10:24:15;17.00;;;11.10;;
24335;SDS011;75016;52.400;16.880;2024-03-08T10:26:41;16.90;;;10.60;;
24335;SDS011;75016;52.400;16.880;2024-03-08T10:29:10;13.10;;;9.80;;
24335;SDS011;75016;52.400;16.880;2024-03-08T10:31:44;19.10;;;11.00;;
24335;SDS011;75016;52.400;16.880;2024-03-08T10:34:11;17.20;;;11.40;;
24335;SDS011;75016;52.400;16.880;2024-03-08T10:36:39;19.30;;;12.20;;
24335;SDS011;75016;52.400;16.880;2024-03-08T10:39:17;23.60;;;13.10;;
24335;SDS011;75016;52.400;16.880;2024-03-08T10:41:58;18.40;;;12.60;;
24335;SDS011;75016;52.400;16.880;2024-03-08T10:50:10;21.30;;;13.20;;
24335;SDS011;75016;52.400;16.880;2024-03-08T10:52:49;20.50;;;12.60;;
24335;SDS011;75016;52.400;16.880;2024-03-08T10:57:46;21.40;;;12.60;;
24335;SDS011;75016;52.400;16.880;2024-03-08T11:00:14;21.10;;;13.00;;
24335;SDS011;75016;52.400;16.880;2024-03-08T11:02:44;22.30;;;13.30;;
24335;SDS011;75016;52.400;16.880;2024-03-08T11:05:13;21.20;;;13.50;;
24335;SDS011;75016;52.400;16.880;2024-03-08T11:07:57;19.60;;;12.70;;
24335;SDS011;75016;52.400;16.880;2024-03-08T11:10:23;20.20;;;13.20;;
24335;SDS011;75016;52.400;16.880;2024-03-08T11:12:50;23.20;;;12.30;;
24335;SDS011;75016;52.400;16.880;2024-03-08T11:15:17;20.80;;;12.50;;
24335;SDS011;75016;52.400;16.880;2024-03-08T11:17:45;19.20;;;11.70;;
24335;SDS011;75016;52.400;16.880;2024-03-08T11:20:13;20.70;;;12.30;;
24335;SDS011;75016;52.400;16.880;2024-03-08T11:22:47;17.50;;;11.60;;
24335;SDS011;75016;52.400;16.880;2024-03-08T11:25:32;21.10;;;12.80;;
24335;SDS011;75016;52.400;16.880;2024-03-08T11:28:06;19.10;;;12.40;;
24335;SDS011;75016;52.400;16.880;2024-03-08T11:30:34;16.30;;;11.20;;
24335;SDS011;75016;52.400;16.880;2024-03-08T11:33:01;17.90;;;11.90;;
24335;SDS011;75016;52.400;16.880;2024-03-08T11:35:29;18.10;;;11.40;;
24335;SDS011;75016;52.400;16.880;2024-03-08T11:37:59;17.40;;;11.20;;
24335;SDS011;75016;52.400;16.880;2024-03-08T11:42:53;18.20;;;10.80;;
24335;SDS011;75016;52.400;16.880;2024-03-08T11:45:20;16.40;;;10.90;;
24335;SDS011;75016;52.400;16.880;2024-03-08T11:47:50;14.90;;;10.10;;
24335;SDS011;75016;52.400;16.880;2024-03-08T11:50:17;15.60;;;11.00;;
24335;SDS011;75016;52.400;16.880;2024-03-08T11:52:45;19.40;;;11.30;;
24335;SDS011;75016;52.400;16.880;2024-03-08T11:55:12;16.70;;;11.10;;
24335;SDS011;75016;52.400;16.880;2024-03-08T11:57:39;16.00;;;10.70;;
24335;SDS011;75016;52.400;16.880;2024-03-08T12:00:05;17.00;;;11.40;;
24335;SDS011;75016;52.400;16.880;2024-03-08T12:02:34;17.40;;;12.00;;
24335;SDS011;75016;52.400;16.880;2024-03-08T12:05:02;18.30;;;11.00;;
24335;SDS011;75016;52.400;16.880;2024-03-08T12:07:32;18.00;;;10.60;;
24335;SDS011;75016;52.400;16.880;2024-03-08T12:10:20;21.00;;;11.20;;
24335;SDS011;75016;52.400;16.880;2024-03-08T12:12:49;18.80;;;11.30;;
24335;SDS011;75016;52.400;16.880;2024-03-08T12:15:18;17.70;;;10.60;;
24335;SDS011;75016;52.400;16.880;2024-03-08T12:17:49;14.70;;;10.20;;
24335;SDS011;75016;52.400;16.880;2024-03-08T12:20:18;14.90;;;10.50;;
24335;SDS011;75016;52.400;16.880;2024-03-08T12:22:51;15.80;;;10.00;;
24335;SDS011;75016;52.400;16.880;2024-03-08T12:25:29;17.60;;;10.30;;
24335;SDS011;75016;52.400;16.880;2024-03-08T12:30:45;17.80;;;10.60;;
24335;SDS011;75016;52.400;16.880;2024-03-08T12:33:14;16.00;;;10.70;;
24335;SDS011;75016;52.400;16.880;2024-03-08T12:35:41;19.50;;;10.40;;
24335;SDS011;75016;52.400;16.880;2024-03-08T12:38:08;15.70;;;10.20;;
24335;SDS011;75016;52.400;16.880;2024-03-08T12:40:35;15.00;;;10.00;;
24335;SDS011;75016;52.400;16.880;2024-03-08T12:43:06;14.80;;;9.80;;
24335;SDS011;75016;52.400;16.880;2024-03-08T12:45:33;15.20;;;10.40;;
24335;SDS011;75016;52.400;16.880;2024-03-08T12:47:59;15.60;;;10.60;;
24335;SDS011;75016;52.400;16.880;2024-03-08T12:50:26;15.30;;;10.90;;
24335;SDS011;75016;52.400;16.880;2024-03-08T12:52:52;18.90;;;11.30;;
24335;SDS011;75016;52.400;16.880;2024-03-08T12:55:19;15.70;;;10.80;;
24335;SDS011;75016;52.400;16.880;2024-03-08T12:57:46;14.40;;;9.60;;
24335;SDS011;75016;52.400;16.880;2024-03-08T13:00:13;14.60;;;10.70;;
24335;SDS011;75016;52.400;16.880;2024-03-08T13:02:45;15.20;;;10.80;;
24335;SDS011;75016;52.400;16.880;2024-03-08T13:05:13;15.50;;;10.90;;
24335;SDS011;75016;52.400;16.880;2024-03-08T13:07:41;14.40;;;10.90;;
24335;SDS011;75016;52.400;16.880;2024-03-08T13:10:12;14.50;;;10.40;;
24335;SDS011;75016;52.400;16.880;2024-03-08T13:12:42;15.40;;;10.50;;
24335;SDS011;75016;52.400;16.880;2024-03-08T13:15:09;13.70;;;10.10;;
24335;SDS011;75016;52.400;16.880;2024-03-08T13:17:47;14.20;;;10.40;;
24335;SDS011;75016;52.400;16.880;2024-03-08T13:20:14;15.70;;;10.30;;
24335;SDS011;75016;52.400;16.880;2024-03-08T13:22:45;16.70;;;11.10;;
24335;SDS011;75016;52.400;16.880;2024-03-08T13:25:13;16.80;;;11.10;;
24335;SDS011;75016;52.400;16.880;2024-03-08T13:27:40;14.90;;;10.70;;
24335;SDS011;75016;52.400;16.880;2024-03-08T13:30:09;15.10;;;11.10;;
24335;SDS011;75016;52.400;16.880;2024-03-08T13:32:40;15.10;;;10.70;;
24335;SDS011;75016;52.400;16.880;2024-03-08T13:35:09;16.30;;;11.00;;
24335;SDS011;75016;52.400;16.880;2024-03-08T13:37:42;17.70;;;10.90;;
24335;SDS011;75016;52.400;16.880;2024-03-08T13:40:09;17.30;;;11.40;;
24335;SDS011;75016;52.400;16.880;2024-03-08T13:42:40;16.20;;;11.30;;
24335;SDS011;75016;52.400;16.880;2024-03-08T13:45:10;19.40;;;11.80;;
24335;SDS011;75016;52.400;16.880;2024-03-08T13:47:38;15.80;;;11.40;;
24335;SDS011;75016;52.400;16.880;2024-03-08T13:50:08;15.80;;;10.90;;
24335;SDS011;75016;52.400;16.880;2024-03-08T13:52:39;14.30;;;10.60;;
24335;SDS011;75016;52.400;16.880;2024-03-08T13:55:06;14.70;;;10.60;;
24335;SDS011;75016;52.400;16.880;2024-03-08T13:57:33;13.10;;;10.30;;
24335;SDS011;75016;52.400;16.880;2024-03-08T14:00:00;18.20;;;11.50;;
24335;SDS011;75016;52.400;16.880;2024-03-08T14:02:26;15.80;;;10.20;;
24335;SDS011;75016;52.400;16.880;2024-03-08T14:04:55;15.00;;;10.90;;
24335;SDS011;75016;52.400;16.880;2024-03-08T14:07:22;13.90;;;10.40;;
24335;SDS011;75016;52.400;16.880;2024-03-08T14:09:49;17.50;;;11.10;;
24335;SDS011;75016;52.400;16.880;2024-03-08T14:12:19;15.40;;;11.20;;
24335;SDS011;75016;52.400;16.880;2024-03-08T14:14:46;14.00;;;10.40;;
24335;SDS011;75016;52.400;16.880;2024-03-08T14:17:13;18.50;;;11.00;;
24335;SDS011;75016;52.400;16.880;2024-03-08T14:19:43;16.30;;;10.70;;
24335;SDS011;75016;52.400;16.880;2024-03-08T14:22:10;16.70;;;10.80;;
24335;SDS011;75016;52.400;16.880;2024-03-08T14:24:41;17.90;;;11.00;;
24335;SDS011;75016;52.400;16.880;2024-03-08T14:27:08;17.70;;;11.20;;
24335;SDS011;75016;52.400;16.880;2024-03-08T14:29:35;15.80;;;10.90;;
24335;SDS011;75016;52.400;16.880;2024-03-08T14:32:02;18.90;;;11.90;;
24335;SDS011;75016;52.400;16.880;2024-03-08T14:34:32;16.80;;;11.10;;
24335;SDS011;75016;52.400;16.880;2024-03-08T14:37:00;18.40;;;10.90;;
24335;SDS011;75016;52.400;16.880;2024-03-08T14:39:27;17.90;;;10.80;;